Time;durP1;ratioP1;P1;durP2;ratioP2;P2;SDS_P1;SDS_P2;PMS_P1;PMS_P2;Temp;Humidity;BMP_temperature;BMP_pressure;BME280_temperature;BME280_humidity;BME280_pressure;Samples;Min_cycle;Max_cycle;Signal;HPM_P1;HPM_P2
2022/10/13 00:00:58;;;;;;;14.83;9.00;;;;;;;7.78;68.38;101541.73;1728683;82;21047;-60
2022/10/13 00:03:24;;;;;;;19.12;10.55;;;;;;;7.85;68.34;101544.45;1693243;83;21086;-60
2022/10/13 00:05:51;;;;;;;16.85;10.32;;;;;;;7.86;68.34;101535.65;1727043;80;21223;-60
2022/10/13 00:08:20;;;;;;;18.00;9.65;;;;;;;7.83;68.46;101534.48;1691804;84;21572;-60
2022/10/13 00:10:49;;;;;;;19.17;10.45;;;;;;;7.78;68.58;101540.42;1694376;82;21109;-60
2022/10/13 00:13:18;;;;;;;16.48;10.25;;;;;;;7.74;68.69;101542.82;1738170;81;21540;-60
2022/10/13 00:15:45;;;;;;;16.42;9.98;;;;;;;7.67;68.79;101539.66;1731831;81;21081;-60
2022/10/13 00:18:14;;;;;;;14.58;9.65;;;;;;;7.64;68.85;101526.70;1730886;81;21245;-60
2022/10/13 00:20:47;;;;;;;14.07;9.60;;;;;;;7.68;68.80;101543.11;1730144;82;21066;-60
2022/10/13 00:23:15;;;;;;;17.57;9.60;;;;;;;7.70;68.86;101541.27;1727038;81;21486;-60
2022/10/13 00:25:45;;;;;;;13.55;9.45;;;;;;;7.64;68.92;101545.05;1729814;80;21101;-60
2022/10/13 00:28:12;;;;;;;17.17;10.58;;;;;;;7.58;69.07;101539.66;1691936;83;21118;-60
2022/10/13 00:30:40;;;;;;;18.77;10.60;;;;;;;7.51;69.18;101536.92;1701425;82;21215;-60
2022/10/13 00:33:07;;;;;;;18.77;10.08;;;;;;;7.43;69.33;101529.46;1741547;81;21489;-60
2022/10/13 00:35:40;;;;;;;17.10;9.43;;;;;;;7.42;69.53;101530.84;1724627;81;21053;-60
2022/10/13 00:38:06;;;;;;;15.13;10.18;;;;;;;7.45;69.42;101535.94;1732328;81;21573;-60
2022/10/13 00:40:33;;;;;;;16.07;9.88;;;;;;;7.46;69.41;101531.53;1736151;80;21361;-60
2022/10/13 00:42:59;;;;;;;16.90;10.82;;;;;;;7.42;69.63;101534.77;1737036;80;21574;-60
2022/10/13 00:45:28;;;;;;;17.30;10.55;;;;;;;7.38;69.76;101530.14;1736962;81;21446;-60
2022/10/13 00:47:57;;;;;;;17.30;9.25;;;;;;;7.33;69.84;101530.83;1738431;81;21070;-60
2022/10/13 00:50:27;;;;;;;16.45;9.65;;;;;;;7.32;69.96;101529.13;1729755;80;21079;-61
2022/10/13 00:52:55;;;;;;;16.87;10.53;;;;;;;7.35;69.89;101532.06;1740432;82;21530;-60
2022/10/13 00:55:26;;;;;;;20.50;10.13;;;;;;;7.37;69.75;101532.84;1736081;81;21223;-60
2022/10/13 00:57:54;;;;;;;14.70;9.90;;;;;;;7.36;69.83;101525.89;1730392;82;21043;-60
2022/10/13 01:00:23;;;;;;;18.62;9.88;;;;;;;7.33;70.00;101532.14;1735428;80;21051;-61
2022/10/13 01:02:49;;;;;;;17.05;9.43;;;;;;;7.34;70.11;101530.36;1735189;82;21066;-60
2022/10/13 01:05:16;;;;;;;17.40;10.90;;;;;;;7.34;70.04;101536.44;1738432;80;21033;-60
2022/10/13 01:07:47;;;;;;;16.60;9.18;;;;;;;7.42;69.92;101533.46;1737765;82;21243;-60
2022/10/13 01:10:15;;;;;;;16.02;9.50;;;;;;;7.45;69.73;101530.70;1736937;80;21054;-60
2022/10/13 01:13:18;;;;;;;18.48;10.20;;;;;;;7.46;69.98;101522.37;1735196;82;21082;-60
2022/10/13 01:16:02;;;;;;;17.32;9.33;;;;;;;7.48;70.03;101519.20;1734879;80;21007;-60
2022/10/13 01:18:46;;;;;;;18.12;9.20;;;;;;;7.46;69.80;101521.90;1734447;82;21683;-62
2022/10/13 01:21:51;;;;;;;17.55;9.40;;;;;;;7.47;69.66;101517.06;1736969;80;21217;-60
2022/10/13 01:24:44;;;;;;;18.40;9.05;;;;;;;7.52;69.33;101522.92;1735476;81;21050;-60
2022/10/13 01:27:47;;;;;;;15.88;9.13;;;;;;;7.52;69.14;101528.16;1734816;80;21015;-61
2022/10/13 01:30:16;;;;;;;18.67;9.45;;;;;;;7.46;69.24;101518.44;1735972;80;21074;-60
2022/10/13 01:33:06;;;;;;;13.88;9.43;;;;;;;7.37;69.36;101528.44;1736870;80;21006;-60
2022/10/13 01:35:45;;;;;;;19.17;9.70;;;;;;;7.30;69.46;101527.05;1738161;82;22510;-60
2022/10/13 01:38:46;;;;;;;15.55;8.95;;;;;;;7.36;69.56;101521.96;1735429;82;21582;-60
2022/10/13 01:41:24;;;;;;;18.00;10.15;;;;;;;7.43;69.36;101524.66;1734630;80;21059;-61
2022/10/13 01:43:56;;;;;;;17.98;9.10;;;;;;;7.51;69.26;101528.23;1711815;82;21057;-61
2022/10/13 01:46:28;;;;;;;18.05;10.03;;;;;;;7.53;69.31;101519.83;1731953;81;21078;-61
2022/10/13 01:48:56;;;;;;;15.85;8.68;;;;;;;7.53;69.26;101527.25;1692156;84;21118;-61
2022/10/13 01:51:24;;;;;;;16.90;9.58;;;;;;;7.49;69.19;101526.16;1698841;82;21011;-61
2022/10/13 01:53:53;;;;;;;15.85;8.53;;;;;;;7.50;69.36;101523.46;1688871;82;21036;-61
2022/10/13 01:56:19;;;;;;;13.18;8.85;;;;;;;7.59;69.35;101528.23;1696586;82;21022;-61
2022/10/13 01:58:48;;;;;;;15.88;9.88;;;;;;;7.65;69.31;101527.55;1724188;82;21034;-61
2022/10/13 02:02:03;;;;;;;18.07;9.95;;;;;;;7.65;69.40;101520.55;1729184;81;21172;-61
2022/10/13 02:05:02;;;;;;;17.07;9.63;;;;;;;7.66;69.36;101520.08;1731977;81;21526;-59
2022/10/13 02:07:46;;;;;;;15.35;9.00;;;;;;;7.61;69.21;101519.83;1739015;81;21458;-59
2022/10/13 02:10:25;;;;;;;14.47;9.15;;;;;;;7.58;69.20;101522.63;1730738;82;21067;-61
2022/10/13 02:12:58;;;;;;;16.10;9.15;;;;;;;7.58;69.09;101528.30;1732135;81;21687;-49
2022/10/13 02:15:45;;;;;;;16.52;8.85;;;;;;;7.62;69.02;101525.94;1730888;80;21074;-48
2022/10/13 02:18:17;;;;;;;15.32;9.70;;;;;;;7.66;69.02;101524.01;1699908;82;21023;-61
2022/10/13 02:20:44;;;;;;;19.67;9.63;;;;;;;7.66;69.10;101529.25;1730113;81;21110;-61
2022/10/13 02:23:15;;;;;;;16.52;9.68;;;;;;;7.66;68.96;101526.62;1723922;80;21095;-48
2022/10/13 02:25:42;;;;;;;19.35;9.23;;;;;;;7.65;68.94;101531.47;1727525;80;21102;-49
2022/10/13 02:28:11;;;;;;;18.00;9.40;;;;;;;7.62;69.04;101524.16;1728350;82;21529;-49
2022/10/13 02:30:40;;;;;;;18.82;10.03;;;;;;;7.64;69.03;101522.78;1728813;80;21133;-49
2022/10/13 02:33:07;;;;;;;16.20;9.58;;;;;;;7.71;68.91;101529.87;1730546;82;21477;-49
2022/10/13 02:35:36;;;;;;;18.73;10.05;;;;;;;7.73;68.99;101530.20;1731192;80;21138;-50
2022/10/13 02:38:05;;;;;;;16.07;9.63;;;;;;;7.72;69.10;101530.27;1731432;82;21580;-50
2022/10/13 02:40:32;;;;;;;17.12;9.78;;;;;;;7.68;69.22;101526.92;1730271;81;21142;-49
2022/10/13 02:42:59;;;;;;;14.80;9.93;;;;;;;7.65;69.36;101522.30;1747534;80;21018;-50
2022/10/13 02:45:26;;;;;;;16.77;8.43;;;;;;;7.65;69.55;101527.55;1737458;81;21052;-50
2022/10/13 02:47:56;;;;;;;17.60;8.73;;;;;;;7.66;69.55;101523.54;1748265;80;21086;-49
2022/10/13 02:50:23;;;;;;;15.20;9.03;;;;;;;7.75;69.40;101520.92;1747542;81;21111;-50
2022/10/13 02:52:49;;;;;;;15.98;8.35;;;;;;;7.85;69.17;101526.11;1746312;80;21706;-50
2022/10/13 02:55:17;;;;;;;11.97;8.40;;;;;;;7.85;68.99;101518.25;1748451;81;21066;-50
2022/10/13 02:57:45;;;;;;;16.37;9.43;;;;;;;7.84;69.02;101515.23;1741734;80;21345;-50
2022/10/13 03:00:14;;;;;;;21.82;9.30;;;;;;;7.84;69.01;101515.23;1746468;80;21070;-49
2022/10/13 03:02:41;;;;;;;17.52;8.18;;;;;;;7.84;68.90;101526.19;1747098;81;21068;-50
2022/10/13 03:05:09;;;;;;;18.62;9.23;;;;;;;7.84;68.77;101521.78;1749816;81;21218;-50
2022/10/13 03:07:36;;;;;;;13.58;8.23;;;;;;;7.92;68.51;101514.38;1745594;81;21525;-49
2022/10/13 03:10:04;;;;;;;12.58;8.50;;;;;;;7.96;68.40;101522.46;1745968;81;21297;-49
2022/10/13 03:12:32;;;;;;;13.48;8.23;;;;;;;7.98;68.61;101525.00;1748596;80;21044;-49
2022/10/13 03:14:59;;;;;;;13.62;8.43;;;;;;;7.99;68.42;101524.09;1748749;81;21142;-49
2022/10/13 03:17:26;;;;;;;15.18;8.03;;;;;;;7.92;68.21;101518.31;1741361;80;21244;-49
2022/10/13 03:19:53;;;;;;;15.95;8.33;;;;;;;7.87;68.36;101521.63;1742127;80;21481;-49
2022/10/13 03:22:19;;;;;;;12.53;7.70;;;;;;;7.95;68.25;101520.78;1744363;80;21074;-49
2022/10/13 03:24:46;;;;;;;15.05;8.80;;;;;;;8.06;68.02;101527.25;1749615;81;21062;-49
2022/10/13 03:27:14;;;;;;;13.50;7.85;;;;;;;8.00;68.19;101526.64;1749349;80;21091;-49
2022/10/13 03:29:41;;;;;;;14.28;9.08;;;;;;;7.97;68.19;101532.03;1749583;81;21290;-49
2022/10/13 03:32:08;;;;;;;12.88;8.23;;;;;;;7.93;68.20;101526.55;1741688;81;21075;-51
2022/10/13 03:34:35;;;;;;;14.23;8.65;;;;;;;7.89;68.26;101523.70;1746203;81;21078;-49
2022/10/13 03:37:01;;;;;;;14.03;8.33;;;;;;;7.89;68.40;101518.94;1749385;80;21138;-49
2022/10/13 03:39:30;;;;;;;14.13;8.48;;;;;;;7.90;68.58;101520.17;1746857;81;21102;-49
2022/10/13 03:41:57;;;;;;;14.58;8.08;;;;;;;8.04;68.51;101524.70;1744466;80;21231;-49
2022/10/13 03:44:23;;;;;;;13.65;9.15;;;;;;;8.07;68.51;101523.69;1737975;80;21054;-49
2022/10/13 03:46:50;;;;;;;13.40;8.28;;;;;;;8.07;68.53;101526.30;1745062;81;21592;-49
2022/10/13 03:49:17;;;;;;;14.33;8.58;;;;;;;8.10;68.36;101527.02;1730187;81;21218;-49
2022/10/13 03:51:44;;;;;;;14.15;8.18;;;;;;;8.06;68.43;101524.63;1739478;80;21120;-49
2022/10/13 03:54:11;;;;;;;16.62;8.25;;;;;;;8.16;68.20;101527.16;1737814;81;21040;-49
2022/10/13 03:56:38;;;;;;;14.85;8.88;;;;;;;8.12;68.26;101531.72;1740372;80;21054;-49
2022/10/13 03:59:07;;;;;;;16.55;8.05;;;;;;;8.16;68.35;101534.55;1749567;81;21012;-48
2022/10/13 04:01:33;;;;;;;14.93;8.20;;;;;;;8.21;68.29;101534.80;1750742;80;21215;-49
2022/10/13 04:04:03;;;;;;;13.40;8.38;;;;;;;8.21;68.26;101533.02;1752661;81;21117;-49
2022/10/13 04:06:30;;;;;;;16.60;8.78;;;;;;;8.25;68.16;101537.63;1734126;80;21202;-48
2022/10/13 04:08:57;;;;;;;15.32;8.83;;;;;;;8.20;68.11;101537.86;1737151;81;21056;-48
2022/10/13 04:11:25;;;;;;;15.03;8.73;;;;;;;8.19;68.28;101537.02;1739749;81;21046;-49
2022/10/13 04:13:56;;;;;;;14.45;8.00;;;;;;;8.21;68.24;101538.25;1735607;82;21097;-49
2022/10/13 04:16:26;;;;;;;16.32;8.00;;;;;;;8.26;68.18;101529.69;1737854;81;21706;-49
2022/10/13 04:19:03;;;;;;;14.80;8.50;;;;;;;8.29;68.29;101531.31;1736594;80;21123;-48
2022/10/13 04:21:32;;;;;;;15.18;8.63;;;;;;;8.30;68.36;101535.61;1734604;81;21015;-52
2022/10/13 04:23:59;;;;;;;14.03;8.40;;;;;;;8.29;68.40;101530.84;1738357;81;21058;-49
2022/10/13 04:26:27;;;;;;;12.93;8.00;;;;;;;8.28;68.39;101538.31;1739908;81;21542;-49
2022/10/13 04:28:54;;;;;;;13.05;8.28;;;;;;;8.27;68.37;101541.02;1737175;81;21078;-49
2022/10/13 04:31:21;;;;;;;13.45;8.45;;;;;;;8.33;68.13;101548.09;1740648;80;21216;-49
2022/10/13 04:33:49;;;;;;;13.40;8.43;;;;;;;8.43;67.98;101545.87;1737688;82;21055;-51
2022/10/13 04:36:16;;;;;;;13.08;8.80;;;;;;;8.43;68.15;101551.13;1735127;80;21102;-49
2022/10/13 04:38:44;;;;;;;16.00;8.20;;;;;;;8.46;68.03;101558.00;1734698;81;21117;-49
2022/10/13 04:41:11;;;;;;;15.72;9.35;;;;;;;8.47;68.01;101550.50;1738057;80;21552;-49
2022/10/13 04:43:38;;;;;;;14.35;8.23;;;;;;;8.44;68.08;101548.90;1733799;82;21149;-50
2022/10/13 04:46:12;;;;;;;15.70;8.55;;;;;;;8.42;68.18;101552.01;1737380;82;21039;-48
2022/10/13 04:48:38;;;;;;;15.28;9.60;;;;;;;8.46;68.10;101543.10;1736069;80;21020;-48
2022/10/13 04:51:10;;;;;;;14.15;9.00;;;;;;;8.52;68.11;101546.72;1735659;80;21124;-48
2022/10/13 04:53:37;;;;;;;14.78;9.40;;;;;;;8.50;68.05;101545.09;1746273;82;21059;-48
2022/10/13 04:56:15;;;;;;;15.53;9.38;;;;;;;8.49;68.15;101556.06;1745957;82;21127;-48
2022/10/13 04:58:43;;;;;;;;;;;;;;;8.46;68.11;101561.46;1747482;81;21056;-49
2022/10/13 05:01:16;;;;;;;20.00;8.58;;;;;;;8.41;68.19;101552.12;1735260;81;20194;-49
2022/10/13 05:03:42;;;;;;;13.65;7.65;;;;;;;8.35;68.46;101549.33;1746819;82;21500;-49
2022/10/13 05:06:17;;;;;;;12.90;8.00;;;;;;;8.42;68.45;101540.68;1745363;82;21038;-48
2022/10/13 05:08:46;;;;;;;15.08;8.50;;;;;;;8.47;68.48;101542.63;1731957;80;21138;-50
2022/10/13 05:11:13;;;;;;;14.98;8.55;;;;;;;8.51;68.17;101549.42;1733609;82;21010;-48
2022/10/13 05:13:40;;;;;;;13.93;8.70;;;;;;;8.50;68.06;101547.72;1737416;80;21699;-48
2022/10/13 05:16:09;;;;;;;12.73;8.05;;;;;;;8.50;68.17;101546.41;1739733;82;21125;-48
2022/10/13 05:18:36;;;;;;;13.55;8.35;;;;;;;8.50;68.15;101555.59;1733327;81;21551;-49
2022/10/13 05:21:12;;;;;;;15.35;7.92;;;;;;;8.48;68.06;101560.91;1725401;82;22133;-48
2022/10/13 05:23:39;;;;;;;17.48;7.45;;;;;;;8.47;68.04;101553.13;1744088;81;21039;-49
2022/10/13 05:26:12;;;;;;;12.60;7.70;;;;;;;8.53;67.96;101548.87;1735832;81;21023;-48
2022/10/13 05:28:40;;;;;;;13.50;8.13;;;;;;;8.58;67.80;101555.20;1742986;80;21114;-49
2022/10/13 05:31:18;;;;;;;20.05;8.68;;;;;;;8.59;67.76;101564.30;1747572;81;21550;-49
2022/10/13 05:33:44;;;;;;;13.93;8.58;;;;;;;8.53;67.80;101572.48;1730748;80;21216;-48
2022/10/13 05:36:19;;;;;;;18.95;8.75;;;;;;;8.48;68.05;101575.34;1741993;82;21044;-49
2022/10/13 05:38:51;;;;;;;15.50;7.95;;;;;;;8.49;68.07;101571.80;1736151;81;21490;-48
2022/10/13 05:41:19;;;;;;;15.23;8.50;;;;;;;8.53;68.11;101576.42;1736821;82;21715;-49
2022/10/13 05:43:45;;;;;;;14.55;8.73;;;;;;;8.61;67.99;101575.55;1737824;80;21078;-53
2022/10/13 05:46:11;;;;;;;14.03;8.43;;;;;;;8.64;67.94;101574.53;1737242;81;21226;-48
2022/10/13 05:48:39;;;;;;;13.80;7.80;;;;;;;8.64;68.03;101580.64;1727090;80;21020;-50
2022/10/13 05:51:15;;;;;;;14.93;9.35;;;;;;;8.66;68.12;101577.47;1730046;82;21536;-48
2022/10/13 05:53:49;;;;;;;38.55;14.33;;;;;;;8.72;67.86;101580.22;1724926;80;21046;-48
2022/10/13 05:56:20;;;;;;;22.90;9.20;;;;;;;8.70;67.78;101578.98;1716903;80;21068;-49
2022/10/13 05:58:53;;;;;;;16.12;8.80;;;;;;;8.77;67.77;101586.55;1711453;81;21239;-47
2022/10/13 06:01:23;;;;;;;36.58;13.22;;;;;;;8.86;67.40;101589.53;1709965;83;21538;-47
2022/10/13 06:03:51;;;;;;;45.92;16.70;;;;;;;8.91;67.28;101584.05;1712925;81;21071;-47
2022/10/13 06:06:18;;;;;;;16.67;9.60;;;;;;;8.92;67.26;101583.93;1709941;83;21070;-48
2022/10/13 06:08:45;;;;;;;24.72;11.35;;;;;;;8.91;67.10;101582.73;1736167;80;21012;-48
2022/10/13 06:11:12;;;;;;;17.40;9.45;;;;;;;8.90;67.31;101584.48;1720684;81;21247;-47
2022/10/13 06:13:38;;;;;;;17.02;9.33;;;;;;;8.91;67.48;101586.67;1714690;81;21037;-48
2022/10/13 06:16:05;;;;;;;42.40;14.30;;;;;;;8.98;67.47;101585.84;1722336;81;21620;-47
2022/10/13 06:18:34;;;;;;;15.03;8.90;;;;;;;9.06;67.19;101589.77;1722582;81;21055;-48
2022/10/13 06:21:00;;;;;;;35.73;13.88;;;;;;;9.14;67.10;101584.08;1709194;82;21083;-47
2022/10/13 06:23:26;;;;;;;14.78;9.45;;;;;;;9.17;67.06;101581.77;1694759;82;21123;-47
2022/10/13 06:25:53;;;;;;;14.00;8.63;;;;;;;9.21;67.09;101581.97;1729427;81;21653;-47
2022/10/13 06:28:20;;;;;;;15.93;9.43;;;;;;;9.25;66.82;101583.52;1731774;81;21039;-50
2022/10/13 06:30:52;;;;;;;15.43;9.53;;;;;;;9.33;66.86;101586.56;1723951;81;21493;-48
2022/10/13 06:33:18;;;;;;;15.85;8.70;;;;;;;9.39;66.61;101588.83;1695376;82;21043;-60
2022/10/13 06:35:46;;;;;;;14.28;8.80;;;;;;;9.45;66.32;101590.28;1694867;82;21240;-59
2022/10/13 06:38:13;;;;;;;26.60;12.75;;;;;;;9.52;66.14;101585.53;1695184;82;21599;-59
2022/10/13 06:40:41;;;;;;;37.80;16.48;;;;;;;9.57;66.17;101586.12;1745825;82;21063;-59
2022/10/13 06:43:07;;;;;;;86.47;25.40;;;;;;;9.60;66.29;101583.29;1721285;81;20995;-59
2022/10/13 06:45:37;;;;;;;19.27;10.78;;;;;;;9.62;66.31;101582.77;1716325;83;21018;-59
2022/10/13 06:48:04;;;;;;;19.40;11.50;;;;;;;9.63;66.13;101589.69;1711560;81;21124;-59
2022/10/13 06:50:31;;;;;;;20.35;10.65;;;;;;;9.66;66.21;101586.89;1717655;81;21077;-59
2022/10/13 06:52:58;;;;;;;23.38;12.05;;;;;;;9.70;66.09;101587.12;1712880;82;21023;-59
2022/10/13 06:55:24;;;;;;;21.35;10.63;;;;;;;9.80;65.91;101589.59;1688772;82;21067;-59
2022/10/13 06:57:51;;;;;;;19.17;10.30;;;;;;;9.90;65.90;101591.67;1698882;82;21070;-59
2022/10/13 07:00:18;;;;;;;16.77;10.23;;;;;;;9.92;65.48;101595.92;1695703;82;21126;-59
2022/10/13 07:02:51;;;;;;;14.87;9.75;;;;;;;9.94;65.51;101590.58;1699231;82;21073;-59
2022/10/13 07:05:17;;;;;;;16.40;9.63;;;;;;;9.97;65.39;101589.06;1715384;83;21130;-59
2022/10/13 07:07:45;;;;;;;90.47;22.15;;;;;;;10.00;65.39;101587.57;1701283;82;21521;-59
2022/10/13 07:10:12;;;;;;;37.63;13.98;;;;;;;10.04;65.51;101590.42;1713089;81;21367;-59
2022/10/13 07:12:39;;;;;;;20.32;10.38;;;;;;;10.11;65.37;101590.43;1700757;83;21298;-59
2022/10/13 07:15:09;;;;;;;14.95;9.63;;;;;;;10.24;65.15;101586.61;1701666;82;21552;-59
2022/10/13 07:17:36;;;;;;;15.98;10.70;;;;;;;10.33;64.74;101588.72;1713521;83;21565;-59
2022/10/13 07:20:04;;;;;;;75.57;20.17;;;;;;;10.37;64.73;101586.74;1699216;82;21098;-59
2022/10/13 07:22:30;;;;;;;19.12;10.20;;;;;;;10.42;64.65;101585.99;1696643;82;21094;-59
2022/10/13 07:24:57;;;;;;;20.12;9.70;;;;;;;10.46;64.69;101588.00;1699970;82;21264;-59
2022/10/13 07:27:24;;;;;;;13.70;9.13;;;;;;;10.58;64.52;101589.40;1698968;82;21058;-60
2022/10/13 07:29:50;;;;;;;14.95;8.85;;;;;;;10.65;64.25;101587.23;1698030;82;21082;-59
2022/10/13 07:32:17;;;;;;;18.87;8.68;;;;;;;10.70;64.13;101589.12;1701521;82;21510;-59
2022/10/13 07:34:43;;;;;;;17.40;9.48;;;;;;;10.80;63.88;101583.30;1709523;83;21548;-59
2022/10/13 07:37:11;;;;;;;14.13;8.25;;;;;;;10.86;63.45;101581.58;1727339;81;21073;-59
2022/10/13 07:39:39;;;;;;;13.80;8.83;;;;;;;10.85;63.15;101584.70;1697576;82;21050;-59
2022/10/13 07:42:06;;;;;;;15.35;8.38;;;;;;;10.84;63.29;101594.84;1712953;82;21074;-60
2022/10/13 07:44:33;;;;;;;14.83;8.43;;;;;;;10.83;63.55;101586.59;1662797;84;21192;-59
2022/10/13 07:46:59;;;;;;;16.35;8.88;;;;;;;10.94;63.52;101589.41;1661752;84;21137;-59
2022/10/13 07:49:26;;;;;;;17.35;9.38;;;;;;;11.03;63.37;101587.98;1673335;84;21139;-59
2022/10/13 07:51:52;;;;;;;16.95;8.40;;;;;;;11.12;63.18;101591.34;1692369;84;21499;-59
2022/10/13 07:54:20;;;;;;;18.40;9.53;;;;;;;11.12;63.03;101593.13;1689949;83;21455;-59
2022/10/13 07:56:50;;;;;;;13.48;8.63;;;;;;;11.20;63.08;101596.13;1693858;82;21073;-59
2022/10/13 07:59:17;;;;;;;13.70;8.70;;;;;;;11.40;62.49;101592.68;1689587;84;21116;-59
2022/10/13 08:01:44;;;;;;;21.42;9.83;;;;;;;11.42;61.98;101597.41;1697290;82;21427;-59
2022/10/13 08:04:11;;;;;;;19.77;9.60;;;;;;;11.45;61.86;101591.46;1689815;83;21071;-59
2022/10/13 08:06:37;;;;;;;16.30;9.63;;;;;;;11.45;62.19;101592.78;1685486;82;21144;-60
2022/10/13 08:09:06;;;;;;;16.37;9.18;;;;;;;11.46;62.17;101589.66;1698661;84;21074;-60
2022/10/13 08:11:34;;;;;;;17.65;9.20;;;;;;;11.51;61.99;101591.52;1679733;84;21114;-60
2022/10/13 08:14:01;;;;;;;14.93;8.78;;;;;;;11.45;62.06;101586.19;1673920;83;21260;-60
2022/10/13 08:16:30;;;;;;;15.90;8.80;;;;;;;11.52;61.86;101584.00;1673934;83;21071;-60
2022/10/13 08:18:58;;;;;;;20.68;8.65;;;;;;;11.56;61.41;101584.16;1687317;84;22344;-60
2022/10/13 08:21:26;;;;;;;17.12;8.60;;;;;;;11.54;61.68;101584.74;1686310;82;21066;-60
2022/10/13 08:23:53;;;;;;;15.98;8.88;;;;;;;11.65;61.68;101578.75;1688811;84;21580;-60
2022/10/13 08:26:23;;;;;;;18.87;8.43;;;;;;;11.79;61.26;101585.78;1687560;82;21188;-60
2022/10/13 08:28:50;;;;;;;14.65;8.95;;;;;;;11.83;61.23;101580.18;1676098;84;21079;-60
2022/10/13 08:31:16;;;;;;;16.52;8.88;;;;;;;11.89;61.48;101582.42;1693265;82;21098;-60
2022/10/13 08:33:46;;;;;;;15.90;9.23;;;;;;;12.00;61.32;101584.84;1690661;84;21134;-60
2022/10/13 08:36:12;;;;;;;15.98;8.65;;;;;;;12.03;61.29;101579.37;1668577;83;21083;-60
2022/10/13 08:38:38;;;;;;;14.45;8.53;;;;;;;12.10;61.36;101579.80;1675626;85;21299;-60
2022/10/13 08:41:31;;;;;;;15.98;7.72;;;;;;;12.18;60.99;101586.73;1674791;83;21482;-60
2022/10/13 08:44:36;;;;;;;13.85;6.97;;;;;;;12.21;60.67;101583.89;1696476;83;21313;-60
2022/10/13 08:59:20;;;;;;;11.68;6.72;;;;;;;13.26;57.39;101577.41;1845487;77;21993;-61
2022/10/13 09:01:50;;;;;;;13.83;7.17;;;;;;;13.37;57.14;101589.89;1834019;76;21479;-61
2022/10/13 09:04:39;;;;;;;16.20;7.45;;;;;;;13.38;57.05;101582.30;1777187;78;20978;-61
2022/10/13 09:07:27;;;;;;;15.43;7.60;;;;;;;13.37;57.02;101591.21;1836349;77;21161;-59
2022/10/13 09:09:54;;;;;;;15.45;7.90;;;;;;;13.35;56.89;101590.48;1831130;77;21022;-60
2022/10/13 09:12:24;;;;;;;13.95;7.75;;;;;;;13.37;56.83;101588.08;1835016;77;20881;-60
2022/10/13 09:15:04;;;;;;;13.25;8.13;;;;;;;13.37;57.28;101589.89;1844004;75;21346;-60
2022/10/13 09:17:32;;;;;;;12.37;8.15;;;;;;;13.37;57.57;101591.21;1801882;78;21224;-60
2022/10/13 09:20:23;;;;;;;15.93;8.00;;;;;;;13.35;58.21;101592.64;1850417;76;21468;-60
2022/10/13 09:23:06;;;;;;;13.20;7.72;;;;;;;13.30;58.46;101598.71;1803855;78;21072;-60
2022/10/13 09:25:41;;;;;;;14.40;8.20;;;;;;;13.24;58.59;101598.30;1794150;78;21096;-60
2022/10/13 09:28:31;;;;;;;14.33;7.85;;;;;;;13.17;58.95;101591.30;1818722;76;22280;-60
2022/10/13 09:31:07;;;;;;;15.40;7.70;;;;;;;13.18;59.17;101596.47;1818774;77;21162;-61
2022/10/13 09:33:35;;;;;;;20.80;8.13;;;;;;;13.25;59.30;101593.40;1827985;77;21321;-59
2022/10/13 09:36:06;;;;;;;18.80;7.75;;;;;;;13.32;59.21;101594.19;1827454;76;20979;-59
2022/10/13 09:38:33;;;;;;;14.95;7.30;;;;;;;13.36;59.36;101581.58;1825335;77;21411;-59
2022/10/13 09:41:14;;;;;;;18.82;8.10;;;;;;;13.40;59.38;101584.84;1826202;76;21159;-59
2022/10/13 09:43:50;;;;;;;16.42;7.50;;;;;;;13.43;59.12;101584.17;1822643;77;21248;-60
2022/10/13 09:46:38;;;;;;;13.78;7.92;;;;;;;13.45;59.29;101575.64;1802742;77;21049;-61
2022/10/13 09:49:39;;;;;;;10.80;6.87;;;;;;;13.44;58.97;101577.91;1819811;77;21108;-60
2022/10/13 09:52:16;;;;;;;13.83;7.58;;;;;;;13.49;58.89;101577.58;1765548;79;21065;-60
2022/10/13 09:54:50;;;;;;;14.07;7.28;;;;;;;13.45;58.73;101571.67;1737964;80;21094;-60
2022/10/13 09:57:34;;;;;;;13.70;6.95;;;;;;;13.40;58.38;101569.84;1809907;77;21231;-60
2022/10/13 10:00:13;;;;;;;17.00;7.95;;;;;;;13.37;58.33;101568.74;1820188;77;21014;-61
2022/10/13 10:02:59;;;;;;;15.45;6.60;;;;;;;13.36;58.27;101577.62;1831439;77;21742;-61
2022/10/13 10:05:54;;;;;;;15.13;7.50;;;;;;;13.32;58.39;101566.91;1812853;77;21390;-61
2022/10/13 10:08:32;;;;;;;;;;;;;;;13.24;58.82;101563.95;1827989;77;21085;-61
2022/10/13 10:11:06;;;;;;;13.83;7.40;;;;;;;13.42;58.37;101567.09;1815387;77;21061;-61
2022/10/13 10:13:33;;;;;;;14.13;7.00;;;;;;;13.50;58.45;101566.89;1824643;77;21018;-60
2022/10/13 10:16:12;;;;;;;13.10;5.75;;;;;;;13.55;58.17;101566.56;1818032;77;21651;-61
2022/10/13 10:19:11;;;;;;;11.57;6.17;;;;;;;13.61;57.99;101563.92;1821088;76;21069;-61
2022/10/13 10:22:11;;;;;;;14.75;6.65;;;;;;;13.64;57.54;101559.25;1811421;77;21144;-59
2022/10/13 10:25:08;;;;;;;14.83;6.85;;;;;;;13.56;57.24;101564.26;1814325;77;21739;-61
2022/10/13 10:27:41;;;;;;;11.63;6.95;;;;;;;13.55;57.45;101562.10;1832063;77;21533;-60
2022/10/13 10:30:17;;;;;;;12.00;7.42;;;;;;;13.62;58.42;101557.69;1817256;76;21081;-60
2022/10/13 10:33:03;;;;;;;12.53;7.37;;;;;;;13.71;58.14;101560.95;1790892;79;21108;-60
2022/10/13 10:35:47;;;;;;;11.93;7.50;;;;;;;13.70;58.40;101557.48;1842157;76;21289;-61
2022/10/13 10:38:22;;;;;;;11.75;6.65;;;;;;;13.73;58.59;101554.61;1837235;77;21218;-60
2022/10/13 10:41:05;;;;;;;14.78;6.60;;;;;;;13.82;58.65;101549.10;1843930;77;20982;-61
2022/10/13 10:43:49;;;;;;;12.25;6.62;;;;;;;13.89;58.58;101550.32;1843143;77;20939;-61
2022/10/13 10:46:22;;;;;;;13.50;7.22;;;;;;;13.99;58.22;101548.31;1821200;77;20888;-61
2022/10/13 10:48:52;;;;;;;18.20;7.37;;;;;;;14.05;58.00;101546.50;1798648;77;21545;-61
2022/10/13 10:51:19;;;;;;;15.75;6.55;;;;;;;14.10;57.96;101545.21;1824629;77;22259;-60
2022/10/13 10:53:57;;;;;;;12.23;6.53;;;;;;;14.16;57.70;101539.91;1830988;77;21539;-61
2022/10/13 10:56:29;;;;;;;14.83;6.47;;;;;;;14.18;57.29;101541.13;1793402;77;21107;-60
2022/10/13 10:59:44;;;;;;;15.72;6.40;;;;;;;14.19;56.74;101537.50;1806245;77;21059;-61
2022/10/13 11:02:31;;;;;;;12.78;6.37;;;;;;;14.19;56.81;101541.47;1823041;77;21133;-61
2022/10/13 11:04:58;;;;;;;15.15;5.75;;;;;;;14.17;56.66;101542.94;1752563;79;21127;-59
2022/10/13 11:07:30;;;;;;;10.48;5.05;;;;;;;14.13;56.46;101537.50;1813976;77;21473;-59
2022/10/13 11:10:16;;;;;;;15.75;7.17;;;;;;;14.10;56.65;101537.27;1790037;78;21507;-60
2022/10/13 11:12:55;;;;;;;12.95;6.37;;;;;;;14.10;56.79;101538.59;1834967;76;21030;-66
2022/10/13 11:15:41;;;;;;;12.58;5.75;;;;;;;14.11;57.07;101534.13;1791048;78;21100;-67
2022/10/13 11:18:55;;;;;;;15.78;5.10;;;;;;;14.11;57.08;101536.78;1797642;78;21121;-67
2022/10/13 11:21:25;;;;;;;9.88;4.70;;;;;;;14.12;56.55;101535.80;1797642;79;21134;-67
2022/10/13 11:23:52;;;;;;;10.40;5.05;;;;;;;14.12;56.09;101528.73;1791399;78;20998;-67
2022/10/13 11:26:31;;;;;;;9.45;4.55;;;;;;;14.10;55.81;101535.08;1792986;79;21008;-67
2022/10/13 11:28:58;;;;;;;10.30;5.47;;;;;;;14.08;55.73;101530.39;1775748;79;21506;-67
2022/10/13 11:31:29;;;;;;;12.33;5.62;;;;;;;14.05;55.62;101532.78;1790782;78;22049;-67
2022/10/13 11:33:58;;;;;;;10.18;5.05;;;;;;;14.04;55.47;101524.50;1799005;79;21129;-68
2022/10/13 11:36:47;;;;;;;10.35;5.25;;;;;;;14.03;55.52;101525.94;1808930;77;21405;-68
2022/10/13 11:39:27;;;;;;;11.28;5.05;;;;;;;14.02;55.59;101529.08;1792001;79;21031;-67
2022/10/13 11:42:05;;;;;;;9.10;4.67;;;;;;;14.00;55.35;101530.13;1777425;80;21107;-67
2022/10/13 11:45:01;;;;;;;17.67;5.45;;;;;;;13.98;55.54;101524.95;1796509;76;21100;-67
2022/10/13 11:47:57;;;;;;;10.35;4.95;;;;;;;13.97;55.90;101531.23;1833109;77;21082;-67
2022/10/13 11:50:43;;;;;;;12.37;5.87;;;;;;;13.94;55.96;101521.70;1826262;77;21473;-67
2022/10/13 11:53:22;;;;;;;13.88;5.50;;;;;;;13.94;55.96;101521.70;1824618;77;21914;-67
2022/10/13 11:55:55;;;;;;;11.25;5.20;;;;;;;13.93;56.16;101526.62;1823724;77;21052;-67
2022/10/13 11:58:29;;;;;;;12.07;5.58;;;;;;;13.95;56.15;101525.19;1813611;78;21219;-67